Anderson Acres, Nevada
Current Conditions -  °F | °C
As of 2:35 PM on Monday 26 Jan 2015 (Local Time) from KRTS Reporting Station
Clear Clear  
Wind Chill: 14°   Ceiling: Unl
Heat Index: 14°   Visibility: 10mi
Dew Point: -3°   Wind: 8mph
Humidity: 31%   Direction: 170°S
Pressure: 30.08"   Gusts: NA
Location:  39.7378°N, 119.889°W
Report Text: KRTS 262235Z AUTO 17007KT 10SM CLR 14/M03 A3008 RMK AO2
Loading
Personal Weather Stations






























Interactive Weather Map New forecast layout! Learn more

10-Day Weather Forecast

Advertisements
Track Severe Weather on mobile